createdAt,value
2022-08-31T00:01:01.504Z,6.67
2022-08-31T00:03:47.502Z,10.87
2022-08-31T00:06:17.437Z,8.60
2022-08-31T00:08:46.230Z,7.90
2022-08-31T00:11:16.902Z,9.30
2022-08-31T00:13:47.725Z,7.93
2022-08-31T00:16:18.142Z,8.67
2022-08-31T00:18:47.118Z,8.20
2022-08-31T00:21:15.848Z,8.77
2022-08-31T00:23:44.585Z,8.23
2022-08-31T00:26:13.433Z,8.27
2022-08-31T00:28:42.292Z,11.57
2022-08-31T00:31:13.758Z,8.13
2022-08-31T00:33:43.447Z,10.77
2022-08-31T00:36:15.796Z,9.13
2022-08-31T00:38:44.535Z,13.33
2022-08-31T00:41:13.737Z,10.00
2022-08-31T00:43:48.012Z,10.23
2022-08-31T00:46:23.246Z,8.60
2022-08-31T00:49:01.210Z,10.23
2022-08-31T00:51:36.297Z,7.60
2022-08-31T00:54:07.323Z,9.10
2022-08-31T00:56:38.313Z,10.23
2022-08-31T00:59:07.508Z,9.10
2022-08-31T01:01:37.692Z,9.33
2022-08-31T01:04:07.682Z,9.63
2022-08-31T01:06:37.598Z,9.90
2022-08-31T01:09:09.197Z,10.20
2022-08-31T01:11:41.153Z,10.00
2022-08-31T01:14:11.030Z,12.17
2022-08-31T01:16:46.799Z,8.80
2022-08-31T01:19:26.024Z,12.27
2022-08-31T01:22:04.047Z,9.93
2022-08-31T01:24:36.625Z,9.83
2022-08-31T01:27:07.889Z,10.53
2022-08-31T01:29:37.459Z,10.07
2022-08-31T01:32:07.968Z,10.17
2022-08-31T01:34:36.914Z,9.27
2022-08-31T01:37:07.096Z,8.53
2022-08-31T01:39:38.238Z,13.00
2022-08-31T01:42:08.196Z,10.73
2022-08-31T01:44:40.943Z,10.33
2022-08-31T01:47:10.910Z,8.80
2022-08-31T01:49:40.842Z,10.23
2022-08-31T01:52:10.785Z,8.40
2022-08-31T01:54:42.899Z,9.97
2022-08-31T01:57:11.837Z,10.23
2022-08-31T01:59:55.429Z,8.60
2022-08-31T02:02:43.249Z,10.70
2022-08-31T02:05:14.612Z,11.10
2022-08-31T02:07:46.598Z,8.40
2022-08-31T02:10:17.603Z,10.73
2022-08-31T02:12:46.633Z,10.17
2022-08-31T02:15:15.546Z,9.33
2022-08-31T02:17:44.447Z,10.33
2022-08-31T02:20:15.719Z,9.77
2022-08-31T02:22:44.778Z,10.50
2022-08-31T02:25:13.645Z,8.73
2022-08-31T02:27:44.499Z,9.87
2022-08-31T02:30:18.855Z,8.33
2022-08-31T02:32:47.895Z,8.33
2022-08-31T02:35:16.815Z,8.60
2022-08-31T02:37:45.631Z,10.03
2022-08-31T02:40:16.708Z,8.50
2022-08-31T02:42:53.516Z,14.57
2022-08-31T02:45:25.638Z,10.43
2022-08-31T02:47:58.991Z,8.50
2022-08-31T02:50:40.355Z,7.77
2022-08-31T02:53:09.972Z,8.47
2022-08-31T02:55:40.006Z,8.50
2022-08-31T02:58:11.178Z,7.83
2022-08-31T03:00:41.349Z,10.20
2022-08-31T03:03:10.126Z,9.50
2022-08-31T03:05:39.647Z,8.13
2022-08-31T03:08:09.586Z,9.30
2022-08-31T03:10:38.811Z,9.37
2022-08-31T03:13:09.649Z,6.93
2022-08-31T03:15:38.741Z,6.33
2022-08-31T03:18:08.191Z,9.63
2022-08-31T03:20:37.269Z,7.33
2022-08-31T03:23:07.739Z,7.67
2022-08-31T03:25:39.561Z,7.57
2022-08-31T03:28:11.069Z,8.73
2022-08-31T03:30:43.843Z,9.13
2022-08-31T03:33:14.356Z,7.10
2022-08-31T03:35:44.914Z,9.43
2022-08-31T03:38:16.923Z,9.53
2022-08-31T03:40:46.316Z,8.63
2022-08-31T03:43:16.624Z,8.77
2022-08-31T03:45:46.153Z,9.67
2022-08-31T03:48:15.243Z,7.97
2022-08-31T03:50:46.497Z,7.37
2022-08-31T03:53:24.830Z,6.93
2022-08-31T03:56:02.088Z,9.83
2022-08-31T03:58:38.915Z,7.40
2022-08-31T04:01:09.030Z,7.03
2022-08-31T04:03:56.570Z,9.17
2022-08-31T04:06:48.190Z,7.80
2022-08-31T04:09:43.697Z,7.07
2022-08-31T04:12:31.675Z,8.23
2022-08-31T04:15:21.034Z,7.90
2022-08-31T04:18:14.049Z,8.00
2022-08-31T04:20:49.817Z,8.03
2022-08-31T04:23:20.247Z,9.47
2022-08-31T04:26:19.758Z,7.90
2022-08-31T04:28:50.548Z,9.33
2022-08-31T04:31:22.564Z,7.77
2022-08-31T04:33:56.783Z,10.37
2022-08-31T04:36:29.010Z,12.00
2022-08-31T04:39:24.157Z,10.23
2022-08-31T04:41:53.381Z,8.70
2022-08-31T04:44:23.107Z,7.33
2022-08-31T04:46:59.710Z,6.70
2022-08-31T04:49:28.842Z,5.87
2022-08-31T04:51:57.902Z,14.70
2022-08-31T04:54:26.691Z,10.80
2022-08-31T04:56:55.926Z,9.17
2022-08-31T04:59:31.410Z,14.50
2022-08-31T05:02:18.331Z,9.00
2022-08-31T05:04:53.339Z,11.03
2022-08-31T05:07:22.249Z,9.27
2022-08-31T05:09:51.096Z,7.53
2022-08-31T05:12:20.093Z,8.23
2022-08-31T05:14:49.210Z,7.40
2022-08-31T05:17:28.172Z,9.20
2022-08-31T05:19:57.081Z,9.47
2022-08-31T05:22:26.099Z,8.63
2022-08-31T05:24:58.079Z,6.27
2022-08-31T05:27:26.978Z,6.87
2022-08-31T05:29:55.667Z,6.47
2022-08-31T05:32:44.330Z,7.83
2022-08-31T05:35:13.719Z,9.47
2022-08-31T05:37:44.177Z,6.60
2022-08-31T05:40:14.620Z,7.67
2022-08-31T05:42:43.554Z,8.30
2022-08-31T05:45:12.614Z,7.97
2022-08-31T05:47:44.396Z,6.70
2022-08-31T05:50:14.169Z,6.27
2022-08-31T05:52:44.657Z,8.23
2022-08-31T05:55:15.412Z,8.20
2022-08-31T05:57:44.286Z,9.60
2022-08-31T06:00:14.641Z,6.33
2022-08-31T06:02:52.235Z,8.43
2022-08-31T06:05:23.078Z,7.00
2022-08-31T06:07:53.465Z,7.30
2022-08-31T06:10:22.663Z,7.77
2022-08-31T06:12:52.192Z,6.43
2022-08-31T06:15:21.950Z,6.90
2022-08-31T06:17:53.221Z,9.30
2022-08-31T06:20:22.657Z,6.17
2022-08-31T06:22:51.393Z,7.43
2022-08-31T06:25:43.248Z,7.10
2022-08-31T06:28:14.402Z,10.17
2022-08-31T06:30:54.957Z,9.70
2022-08-31T06:33:25.938Z,6.57
2022-08-31T06:36:15.482Z,7.13
2022-08-31T06:39:02.507Z,5.50
2022-08-31T06:41:52.700Z,7.17
2022-08-31T06:44:38.047Z,9.77
2022-08-31T06:47:22.114Z,8.13
2022-08-31T06:49:54.920Z,9.17
2022-08-31T06:52:23.699Z,8.50
2022-08-31T06:55:09.378Z,9.47
2022-08-31T06:57:53.419Z,8.30
2022-08-31T07:00:49.485Z,7.10
2022-08-31T07:03:24.421Z,7.23
2022-08-31T07:05:56.473Z,7.77
2022-08-31T07:08:25.405Z,8.00
2022-08-31T07:10:54.583Z,7.83
2022-08-31T07:13:23.377Z,6.83
2022-08-31T07:15:52.417Z,6.33
2022-08-31T07:18:21.551Z,7.03
2022-08-31T07:20:50.320Z,7.67
2022-08-31T07:23:20.768Z,7.17
2022-08-31T07:25:59.704Z,7.23
2022-08-31T07:28:29.729Z,11.30
2022-08-31T07:30:58.651Z,6.97
2022-08-31T07:33:27.628Z,7.43
2022-08-31T07:35:59.894Z,6.37
2022-08-31T07:39:03.477Z,10.07
2022-08-31T07:41:50.522Z,8.07
2022-08-31T07:44:20.814Z,6.87
2022-08-31T07:46:51.161Z,7.77
2022-08-31T07:49:21.708Z,7.03
2022-08-31T07:52:06.209Z,6.23
2022-08-31T07:54:56.728Z,7.47
2022-08-31T07:57:36.356Z,7.20
2022-08-31T08:00:09.675Z,9.27
2022-08-31T08:02:52.986Z,9.43
2022-08-31T08:05:31.930Z,12.20
2022-08-31T08:08:25.300Z,8.03
2022-08-31T08:11:23.146Z,12.03
2022-08-31T08:14:08.837Z,7.13
2022-08-31T08:17:01.082Z,9.40
2022-08-31T08:19:52.447Z,5.73
2022-08-31T08:22:41.621Z,10.40
2022-08-31T08:25:43.121Z,4.93
2022-08-31T08:28:40.258Z,9.00
2022-08-31T08:31:16.749Z,5.77
2022-08-31T08:33:46.960Z,6.47
2022-08-31T08:36:18.530Z,6.27
2022-08-31T08:38:51.334Z,7.37
2022-08-31T08:41:24.899Z,7.87
2022-08-31T08:44:04.248Z,7.13
2022-08-31T08:46:44.214Z,8.90
2022-08-31T08:49:22.483Z,9.43
2022-08-31T08:52:02.205Z,6.33
2022-08-31T08:54:35.881Z,8.13
2022-08-31T08:57:14.168Z,10.00
2022-08-31T08:59:48.444Z,8.13
2022-08-31T09:02:24.385Z,5.67
2022-08-31T09:05:40.032Z,5.90
2022-08-31T09:09:08.874Z,5.90
2022-08-31T09:12:01.474Z,5.43
2022-08-31T09:14:53.716Z,7.27
2022-08-31T09:17:45.765Z,4.73
2022-08-31T09:20:16.684Z,5.30
2022-08-31T09:22:50.214Z,8.30
2022-08-31T09:25:29.900Z,7.50
2022-08-31T09:28:08.226Z,7.43
2022-08-31T09:30:53.241Z,7.30
2022-08-31T09:33:25.735Z,6.63
2022-08-31T09:36:14.067Z,6.13
2022-08-31T09:38:47.296Z,7.23
2022-08-31T09:41:33.253Z,6.00
2022-08-31T09:44:31.510Z,5.70
2022-08-31T09:47:08.390Z,6.27
2022-08-31T09:49:45.723Z,6.50
2022-08-31T09:52:45.097Z,5.97
2022-08-31T09:55:21.465Z,3.85
2022-08-31T09:57:59.303Z,5.80
2022-08-31T10:00:39.928Z,8.02
2022-08-31T10:03:20.680Z,5.78
2022-08-31T10:05:54.753Z,9.38
2022-08-31T10:08:43.483Z,4.72
2022-08-31T10:11:19.817Z,7.15
2022-08-31T10:13:57.841Z,5.25
2022-08-31T10:16:35.010Z,4.95
2022-08-31T10:19:09.707Z,3.42
2022-08-31T10:21:52.422Z,3.40
2022-08-31T10:24:33.942Z,5.57
2022-08-31T10:27:16.941Z,5.55
2022-08-31T10:29:57.092Z,3.53
2022-08-31T10:32:36.456Z,4.63
2022-08-31T10:35:15.066Z,4.93
2022-08-31T10:37:59.871Z,3.97
2022-08-31T10:40:37.066Z,6.38
2022-08-31T10:43:17.040Z,3.63
2022-08-31T10:45:51.151Z,3.30
2022-08-31T10:48:23.423Z,7.13
2022-08-31T10:51:13.285Z,3.45
2022-08-31T10:54:13.522Z,5.95
2022-08-31T10:56:59.291Z,3.83
2022-08-31T10:59:39.428Z,9.68
2022-08-31T11:02:39.821Z,7.00
2022-08-31T11:05:35.370Z,4.03
2022-08-31T11:08:33.434Z,3.67
2022-08-31T11:11:06.080Z,3.47
2022-08-31T11:14:08.141Z,4.43
2022-08-31T11:17:02.080Z,4.32
2022-08-31T11:20:03.546Z,3.28
2022-08-31T11:23:06.291Z,2.97
2022-08-31T11:26:34.595Z,3.67
2022-08-31T11:29:13.719Z,3.40
2022-08-31T11:31:43.763Z,2.10
2022-08-31T11:34:25.768Z,2.70
2022-08-31T11:36:57.549Z,3.47
2022-08-31T11:39:43.163Z,3.58
2022-08-31T11:43:01.356Z,3.25
2022-08-31T11:45:34.670Z,5.43
2022-08-31T11:48:03.522Z,2.47
2022-08-31T11:51:07.455Z,2.22
2022-08-31T11:53:44.390Z,2.00
2022-08-31T11:56:15.323Z,2.58
2022-08-31T11:58:48.281Z,2.85
2022-08-31T12:01:43.172Z,2.85
2022-08-31T12:05:02.734Z,2.03
2022-08-31T12:07:41.229Z,2.28
2022-08-31T12:10:36.513Z,2.45
2022-08-31T12:13:49.799Z,2.30
2022-08-31T12:16:42.925Z,1.67
2022-08-31T12:19:56.748Z,2.88
2022-08-31T12:23:35.139Z,2.20
2022-08-31T12:26:26.706Z,1.88
2022-08-31T12:29:24.180Z,3.65
2022-08-31T12:32:23.528Z,1.80
2022-08-31T12:35:03.424Z,1.65
2022-08-31T12:37:35.991Z,1.20
2022-08-31T12:40:30.687Z,2.55
2022-08-31T12:43:11.654Z,1.50
2022-08-31T12:46:15.116Z,2.78
2022-08-31T12:49:10.960Z,1.73
2022-08-31T12:51:47.206Z,1.98
2022-08-31T12:54:47.283Z,2.95
2022-08-31T12:57:36.311Z,3.13
2022-08-31T13:00:16.065Z,2.03
2022-08-31T13:02:49.445Z,1.85
2022-08-31T13:05:27.508Z,1.70
2022-08-31T13:07:57.335Z,2.30
2022-08-31T13:10:34.089Z,2.03
2022-08-31T13:13:06.849Z,3.47
2022-08-31T13:15:41.670Z,2.88
2022-08-31T13:18:14.792Z,2.30
2022-08-31T13:20:46.930Z,2.50
2022-08-31T13:23:29.226Z,5.20
2022-08-31T13:26:03.856Z,2.30
2022-08-31T13:28:35.329Z,3.40
2022-08-31T13:31:09.248Z,1.45
2022-08-31T13:33:41.378Z,2.33
2022-08-31T13:36:32.066Z,5.63
2022-08-31T13:39:05.555Z,4.97
2022-08-31T13:41:40.001Z,3.72
2022-08-31T13:44:13.225Z,3.03
2022-08-31T13:47:01.307Z,3.63
2022-08-31T13:49:35.867Z,2.20
2022-08-31T13:52:15.445Z,1.98
2022-08-31T13:54:44.716Z,1.40
2022-08-31T13:57:25.955Z,2.03
2022-08-31T13:59:55.169Z,2.20
2022-08-31T14:02:39.282Z,3.03
2022-08-31T14:05:10.609Z,3.05
2022-08-31T14:08:02.392Z,1.63
2022-08-31T14:10:37.335Z,3.47
2022-08-31T14:13:19.263Z,2.10
2022-08-31T14:15:56.754Z,2.25
2022-08-31T14:18:30.471Z,3.30
2022-08-31T14:21:23.065Z,4.32
2022-08-31T14:24:01.616Z,2.78
2022-08-31T14:26:34.094Z,6.70
2022-08-31T14:29:10.377Z,2.08
2022-08-31T14:31:49.521Z,3.40
2022-08-31T14:34:25.034Z,2.05
2022-08-31T14:37:02.369Z,2.35
2022-08-31T14:39:36.810Z,2.90
2022-08-31T14:42:10.017Z,1.65
2022-08-31T14:44:43.110Z,2.55
2022-08-31T14:47:12.863Z,3.65
2022-08-31T14:49:44.256Z,2.83
2022-08-31T14:52:13.216Z,6.90
2022-08-31T14:54:44.544Z,2.28
2022-08-31T14:57:19.191Z,3.45
2022-08-31T14:59:48.420Z,4.25
2022-08-31T15:02:21.362Z,3.33
2022-08-31T15:04:51.437Z,4.28
2022-08-31T15:07:21.710Z,4.45
2022-08-31T15:09:51.885Z,4.05
2022-08-31T15:12:23.758Z,6.10
2022-08-31T15:15:00.236Z,2.40
2022-08-31T15:17:33.943Z,3.38
2022-08-31T15:20:03.768Z,3.22
2022-08-31T15:22:35.202Z,2.78
2022-08-31T15:25:07.136Z,4.65
2022-08-31T15:27:36.405Z,3.33
2022-08-31T15:30:08.932Z,4.10
2022-08-31T15:32:46.788Z,4.38
2022-08-31T15:35:20.029Z,2.75
2022-08-31T15:37:56.807Z,2.38
2022-08-31T15:40:38.676Z,2.90
2022-08-31T15:43:15.632Z,2.88
2022-08-31T15:46:52.561Z,4.78
2022-08-31T15:49:26.034Z,3.42
2022-08-31T15:51:55.279Z,4.70
2022-08-31T15:54:34.349Z,4.63
2022-08-31T15:57:06.130Z,2.85
2022-08-31T15:59:40.118Z,3.47
2022-08-31T16:02:14.956Z,1.63
2022-08-31T16:04:48.666Z,4.10
2022-08-31T16:07:19.257Z,2.65
2022-08-31T16:09:47.987Z,2.05
2022-08-31T16:12:19.578Z,2.00
2022-08-31T16:14:51.550Z,2.92
2022-08-31T16:17:20.578Z,2.85
2022-08-31T16:19:50.271Z,2.35
2022-08-31T16:22:22.597Z,7.18
2022-08-31T16:25:00.288Z,4.72
2022-08-31T16:27:31.097Z,3.72
2022-08-31T16:30:00.533Z,3.13
2022-08-31T16:32:31.000Z,5.22
2022-08-31T16:34:59.956Z,2.67
2022-08-31T16:37:32.064Z,6.00
2022-08-31T16:40:04.321Z,3.85
2022-08-31T16:42:35.230Z,5.57
2022-08-31T16:45:04.186Z,3.55
2022-08-31T16:47:33.020Z,3.70
2022-08-31T16:50:04.554Z,4.05
2022-08-31T16:52:34.862Z,3.47
2022-08-31T16:55:04.057Z,2.85
2022-08-31T16:57:35.777Z,4.20
2022-08-31T17:00:06.723Z,4.63
2022-08-31T17:02:36.066Z,3.38
2022-08-31T17:05:05.594Z,4.80
2022-08-31T17:07:34.785Z,4.15
2022-08-31T17:10:06.735Z,5.82
2022-08-31T17:12:38.510Z,4.20
2022-08-31T17:15:12.257Z,5.30
2022-08-31T17:17:42.592Z,3.17
2022-08-31T17:20:13.342Z,5.47
2022-08-31T17:22:42.318Z,5.95
2022-08-31T17:25:13.256Z,2.88
2022-08-31T17:27:43.763Z,3.22
2022-08-31T17:30:20.290Z,2.80
2022-08-31T17:32:49.475Z,2.35
2022-08-31T17:35:19.197Z,4.18
2022-08-31T17:37:49.104Z,3.03
2022-08-31T17:40:19.118Z,4.28
2022-08-31T17:42:55.009Z,3.47
2022-08-31T17:45:27.758Z,4.72
2022-08-31T17:47:56.581Z,3.15
2022-08-31T17:50:28.173Z,3.63
2022-08-31T17:52:57.087Z,2.30
2022-08-31T17:55:25.830Z,4.35
2022-08-31T17:57:56.594Z,5.43
2022-08-31T18:00:26.381Z,5.20
2022-08-31T18:02:55.236Z,3.55
2022-08-31T18:05:31.840Z,6.32
2022-08-31T18:08:01.945Z,8.95
2022-08-31T18:10:31.125Z,3.95
2022-08-31T18:13:03.391Z,3.15
2022-08-31T18:15:32.586Z,4.80
2022-08-31T18:18:02.388Z,3.22
2022-08-31T18:20:32.738Z,6.00
2022-08-31T18:23:01.581Z,4.53
2022-08-31T18:25:35.945Z,3.03
2022-08-31T18:28:07.271Z,6.53
2022-08-31T18:30:41.349Z,4.33
2022-08-31T18:33:15.036Z,4.23
2022-08-31T18:35:48.831Z,3.67
2022-08-31T18:38:20.228Z,5.47
2022-08-31T18:41:06.212Z,5.67
2022-08-31T18:43:53.845Z,7.13
2022-08-31T18:46:25.358Z,4.28
2022-08-31T18:49:01.163Z,4.63
2022-08-31T18:51:46.435Z,5.17
2022-08-31T18:54:16.125Z,3.70
2022-08-31T18:56:45.125Z,7.33
2022-08-31T18:59:16.210Z,4.70
2022-08-31T19:01:46.769Z,6.53
2022-08-31T19:04:19.881Z,4.27
2022-08-31T19:06:51.057Z,5.23
2022-08-31T19:09:22.414Z,3.50
2022-08-31T19:11:51.837Z,4.17
2022-08-31T19:14:26.117Z,7.63
2022-08-31T19:17:02.314Z,6.03
2022-08-31T19:19:33.911Z,6.30
2022-08-31T19:22:02.690Z,4.00
2022-08-31T19:24:36.323Z,6.53
2022-08-31T19:27:05.506Z,7.63
2022-08-31T19:29:36.176Z,5.70
2022-08-31T19:32:08.745Z,7.70
2022-08-31T19:34:40.452Z,6.50
2022-08-31T19:37:10.260Z,6.47
2022-08-31T19:39:43.161Z,7.13
2022-08-31T19:42:16.825Z,4.77
2022-08-31T19:45:22.678Z,5.27
2022-08-31T19:47:38.787Z,2.87
2022-08-31T19:50:13.692Z,3.67
2022-08-31T19:52:43.718Z,7.00
2022-08-31T19:55:13.414Z,5.87
2022-08-31T19:57:43.562Z,3.87
2022-08-31T20:00:16.210Z,4.93
2022-08-31T20:02:48.068Z,3.57
2022-08-31T20:05:17.431Z,6.63
2022-08-31T20:07:46.493Z,4.17
2022-08-31T20:10:15.410Z,4.47
2022-08-31T20:12:45.027Z,6.30
2022-08-31T20:15:16.072Z,6.87
2022-08-31T20:17:46.327Z,4.90
2022-08-31T20:20:15.234Z,4.57
2022-08-31T20:22:46.623Z,5.27
2022-08-31T20:25:18.002Z,3.90
2022-08-31T20:27:50.515Z,4.97
2022-08-31T20:30:21.135Z,4.03
2022-08-31T20:32:49.869Z,4.07
2022-08-31T20:35:19.116Z,5.37
2022-08-31T20:37:48.131Z,5.00
2022-08-31T20:40:19.088Z,3.73
2022-08-31T20:42:48.381Z,3.87
2022-08-31T20:45:17.297Z,4.90
2022-08-31T20:48:04.906Z,3.40
2022-08-31T20:50:35.812Z,6.40
2022-08-31T20:53:09.068Z,5.77
2022-08-31T20:55:38.422Z,5.23
2022-08-31T20:58:07.850Z,4.20
2022-08-31T21:00:43.597Z,4.30
2022-08-31T21:03:14.573Z,5.07
2022-08-31T21:05:45.355Z,5.57
2022-08-31T21:08:16.026Z,4.10
2022-08-31T21:10:44.783Z,3.13
2022-08-31T21:13:16.851Z,4.80
2022-08-31T21:15:47.824Z,5.93
2022-08-31T21:18:19.196Z,3.87
2022-08-31T21:20:51.641Z,4.73
2022-08-31T21:23:20.679Z,4.13
2022-08-31T21:25:49.663Z,8.03
2022-08-31T21:28:19.755Z,5.30
2022-08-31T21:30:50.563Z,4.73
2022-08-31T21:33:21.058Z,3.57
2022-08-31T21:35:49.883Z,4.53
2022-08-31T21:38:18.611Z,4.93
2022-08-31T21:40:51.496Z,4.03
2022-08-31T21:43:20.824Z,5.17
2022-08-31T21:45:55.370Z,10.07
2022-08-31T21:48:25.698Z,7.23
2022-08-31T21:50:55.771Z,6.13
2022-08-31T21:53:27.202Z,8.40
2022-08-31T21:55:56.004Z,9.80
2022-08-31T21:58:24.836Z,9.93
2022-08-31T22:00:55.541Z,8.87
2022-08-31T22:03:26.164Z,9.40
2022-08-31T22:05:55.250Z,8.43
2022-08-31T22:08:27.194Z,7.13
2022-08-31T22:10:55.899Z,7.50
2022-08-31T22:13:24.645Z,5.93
2022-08-31T22:15:57.144Z,6.23
2022-08-31T22:19:00.216Z,6.53
2022-08-31T22:21:24.176Z,9.20
2022-08-31T22:23:56.892Z,9.23
2022-08-31T22:26:30.245Z,4.43
2022-08-31T22:28:59.393Z,3.67
2022-08-31T22:31:28.581Z,4.73
2022-08-31T22:33:58.969Z,4.13
2022-08-31T22:36:32.783Z,6.73
2022-08-31T22:39:04.407Z,5.67
2022-08-31T22:41:35.739Z,4.10
2022-08-31T22:44:05.099Z,5.17
2022-08-31T22:46:35.254Z,6.63
2022-08-31T22:49:06.327Z,5.10
2022-08-31T22:51:35.881Z,5.10
2022-08-31T22:54:06.190Z,3.30
2022-08-31T22:56:38.175Z,2.43
2022-08-31T22:59:13.998Z,3.03
2022-08-31T23:01:47.695Z,5.43
2022-08-31T23:04:20.450Z,3.50
2022-08-31T23:06:51.890Z,3.97
2022-08-31T23:09:27.699Z,3.70
2022-08-31T23:11:58.779Z,4.13
2022-08-31T23:14:28.049Z,4.47
2022-08-31T23:17:00.934Z,4.20
2022-08-31T23:19:37.094Z,3.10
2022-08-31T23:22:10.714Z,4.83
2022-08-31T23:24:43.950Z,3.80
2022-08-31T23:27:14.955Z,3.77
2022-08-31T23:29:48.913Z,2.87
2022-08-31T23:32:21.083Z,8.23
2022-08-31T23:34:52.767Z,4.40
2022-08-31T23:37:25.580Z,5.60
2022-08-31T23:39:56.761Z,3.73
2022-08-31T23:42:29.542Z,3.87
2022-08-31T23:44:59.085Z,4.60
2022-08-31T23:47:31.983Z,3.03
2022-08-31T23:50:07.679Z,5.50
2022-08-31T23:52:41.768Z,4.47
2022-08-31T23:55:12.272Z,3.83
2022-08-31T23:57:41.978Z,7.00
